createdAt,value
2018-04-04T00:01:19.566Z,22.27
2018-04-04T00:03:46.723Z,18.10
2018-04-04T00:06:13.928Z,26.33
2018-04-04T00:08:40.301Z,34.83
2018-04-04T00:11:07.439Z,15.80
2018-04-04T00:13:35.304Z,17.03
2018-04-04T00:16:01.770Z,19.33
2018-04-04T00:18:28.161Z,19.40
2018-04-04T00:20:54.543Z,18.20
2018-04-04T00:23:20.939Z,20.10
2018-04-04T00:25:48.797Z,18.30
2018-04-04T00:28:15.179Z,17.83
2018-04-04T00:30:41.552Z,19.53
2018-04-04T00:33:07.936Z,19.03
2018-04-04T00:35:34.321Z,19.73
2018-04-04T00:38:00.711Z,21.27
2018-04-04T00:40:27.153Z,16.70
2018-04-04T00:42:53.531Z,16.53
2018-04-04T00:45:20.716Z,18.70
2018-04-04T00:47:47.088Z,20.83
2018-04-04T00:50:13.500Z,24.40
2018-04-04T00:52:39.912Z,23.23
2018-04-04T00:55:06.283Z,27.77
2018-04-04T00:57:32.676Z,21.10
2018-04-04T00:59:59.180Z,21.50
2018-04-04T01:02:26.322Z,22.20
2018-04-04T01:04:53.448Z,19.73
2018-04-04T01:07:19.838Z,21.77
2018-04-04T01:09:46.203Z,18.70
2018-04-04T01:12:12.599Z,20.10
2018-04-04T01:14:38.968Z,18.57
2018-04-04T01:17:05.336Z,16.50
2018-04-04T01:19:32.477Z,19.37
2018-04-04T01:22:00.366Z,19.10
2018-04-04T01:24:27.492Z,16.90
2018-04-04T01:26:53.890Z,26.00
2018-04-04T01:29:20.263Z,15.60
2018-04-04T01:31:47.383Z,16.20
2018-04-04T01:34:13.776Z,18.03
2018-04-04T01:36:40.146Z,36.43
2018-04-04T01:39:06.542Z,17.40
2018-04-04T01:41:32.939Z,17.83
2018-04-04T01:44:00.083Z,19.77
2018-04-04T01:46:26.503Z,18.50
2018-04-04T01:48:52.942Z,14.27
2018-04-04T01:51:19.417Z,19.73
2018-04-04T01:53:45.878Z,19.37
2018-04-04T01:56:12.286Z,17.93
2018-04-04T01:58:38.665Z,21.47
2018-04-04T02:01:05.163Z,20.27
2018-04-04T02:03:31.559Z,22.10
2018-04-04T02:05:58.671Z,27.83
2018-04-04T02:08:25.059Z,16.30
2018-04-04T02:10:51.464Z,23.90
2018-04-04T02:13:17.855Z,17.37
2018-04-04T02:15:44.241Z,24.30
2018-04-04T02:18:11.376Z,16.80
2018-04-04T02:20:37.766Z,15.73
2018-04-04T02:23:04.168Z,23.57
2018-04-04T02:25:30.574Z,19.87
2018-04-04T02:27:57.709Z,19.87
2018-04-04T02:30:24.152Z,21.20
2018-04-04T02:32:50.486Z,29.20
2018-04-04T02:35:17.588Z,19.60
2018-04-04T02:37:43.964Z,15.20
2018-04-04T02:40:10.345Z,20.03
2018-04-04T02:42:36.719Z,23.13
2018-04-04T02:45:03.131Z,12.40
2018-04-04T02:47:29.514Z,25.97
2018-04-04T02:49:56.673Z,19.40
2018-04-04T02:52:23.068Z,46.23
2018-04-04T02:54:50.187Z,17.57
2018-04-04T02:57:16.692Z,15.67
2018-04-04T02:59:43.136Z,19.60
2018-04-04T03:02:09.511Z,20.33
2018-04-04T03:04:36.745Z,23.57
2018-04-04T03:07:03.157Z,19.00
2018-04-04T03:09:29.524Z,20.93
2018-04-04T03:11:55.933Z,19.00
2018-04-04T03:14:22.365Z,18.20
2018-04-04T03:16:48.803Z,18.77
2018-04-04T03:19:15.193Z,18.97
2018-04-04T03:21:42.317Z,18.00
2018-04-04T03:24:08.968Z,21.43
2018-04-04T03:26:36.089Z,17.77
2018-04-04T03:29:02.500Z,19.27
2018-04-04T03:31:28.900Z,14.37
2018-04-04T03:33:55.291Z,18.90
2018-04-04T03:36:21.671Z,16.57
2018-04-04T03:38:48.047Z,20.17
2018-04-04T03:41:14.431Z,22.53
2018-04-04T03:43:40.816Z,18.50
2018-04-04T03:46:07.958Z,14.10
2018-04-04T03:48:34.382Z,13.30
2018-04-04T03:51:02.298Z,16.87
2018-04-04T03:53:29.442Z,17.40
2018-04-04T03:55:56.559Z,15.93
2018-04-04T03:58:23.062Z,14.40
2018-04-04T04:00:49.448Z,16.17
2018-04-04T04:03:16.741Z,16.57
2018-04-04T04:05:43.373Z,15.60
2018-04-04T04:08:09.776Z,20.90
2018-04-04T04:10:36.916Z,19.73
2018-04-04T04:13:04.048Z,17.63
2018-04-04T04:15:31.197Z,15.50
2018-04-04T04:17:57.593Z,25.37
2018-04-04T04:20:23.979Z,27.20
2018-04-04T04:22:50.354Z,26.00
2018-04-04T04:25:16.738Z,18.47
2018-04-04T04:27:43.121Z,16.63
2018-04-04T04:30:09.506Z,16.03
2018-04-04T04:32:36.637Z,17.33
2018-04-04T04:35:03.029Z,15.20
2018-04-04T04:37:29.422Z,17.80
2018-04-04T04:39:55.847Z,17.93
2018-04-04T04:42:22.981Z,18.20
2018-04-04T04:44:50.883Z,16.70
2018-04-04T04:47:17.271Z,28.67
2018-04-04T04:49:47.174Z,22.40
2018-04-04T04:52:13.566Z,26.03
2018-04-04T04:54:40.726Z,20.83
2018-04-04T04:57:07.117Z,21.93
2018-04-04T04:59:33.538Z,21.23
2018-04-04T05:02:00.006Z,19.10
2018-04-04T05:04:26.668Z,16.50
2018-04-04T05:06:53.096Z,18.03
2018-04-04T05:09:19.570Z,21.67
2018-04-04T05:11:46.047Z,14.37
2018-04-04T05:14:13.221Z,12.90
2018-04-04T05:16:39.611Z,20.57
2018-04-04T05:19:05.991Z,19.80
2018-04-04T05:21:32.365Z,15.47
2018-04-04T05:23:58.754Z,22.20
2018-04-04T05:26:25.147Z,24.47
2018-04-04T05:28:52.277Z,20.47
2018-04-04T05:31:18.662Z,19.03
2018-04-04T05:33:45.038Z,16.43
2018-04-04T05:36:11.432Z,19.27
2018-04-04T05:38:37.886Z,20.60
2018-04-04T05:41:04.284Z,25.07
2018-04-04T05:43:30.682Z,20.33
2018-04-04T05:45:57.106Z,24.70
2018-04-04T05:48:23.498Z,22.03
2018-04-04T05:50:50.089Z,16.00
2018-04-04T05:53:16.467Z,18.40
2018-04-04T05:55:42.985Z,18.30
2018-04-04T05:58:13.325Z,16.13
2018-04-04T06:00:39.751Z,19.70
2018-04-04T06:03:06.117Z,22.97
2018-04-04T06:05:32.612Z,24.90
2018-04-04T06:07:59.027Z,22.03
2018-04-04T06:10:26.305Z,16.57
2018-04-04T06:12:52.762Z,21.30
2018-04-04T06:15:19.212Z,24.80
2018-04-04T06:17:45.628Z,17.77
2018-04-04T06:20:12.035Z,34.00
2018-04-04T06:22:38.420Z,19.60
2018-04-04T06:25:04.846Z,21.80
2018-04-04T06:27:31.283Z,28.80
2018-04-04T06:29:59.135Z,21.40
2018-04-04T06:32:25.555Z,19.23
2018-04-04T06:34:51.949Z,18.10
2018-04-04T06:37:19.086Z,18.57
2018-04-04T06:39:46.214Z,20.47
2018-04-04T06:42:14.084Z,18.13
2018-04-04T06:44:40.493Z,13.87
2018-04-04T06:47:06.884Z,20.53
2018-04-04T06:49:33.259Z,14.90
2018-04-04T06:51:59.678Z,27.40
2018-04-04T06:54:26.078Z,15.73
2018-04-04T06:56:52.475Z,18.13
2018-04-04T06:59:18.863Z,12.50
2018-04-04T07:01:46.060Z,16.83
2018-04-04T07:04:12.439Z,12.13
2018-04-04T07:06:38.823Z,15.80
2018-04-04T07:09:05.216Z,12.60
2018-04-04T07:11:31.669Z,18.33
2018-04-04T07:13:58.255Z,12.93
2018-04-04T07:16:24.638Z,15.40
2018-04-04T07:18:51.058Z,32.87
2018-04-04T07:21:17.592Z,34.60
2018-04-04T07:23:44.041Z,15.90
2018-04-04T07:26:10.443Z,18.97
2018-04-04T07:28:36.827Z,29.57
2018-04-04T07:31:03.988Z,17.27
2018-04-04T07:33:31.129Z,10.80
2018-04-04T07:35:58.275Z,18.20
2018-04-04T07:38:24.699Z,16.57
2018-04-04T07:40:52.610Z,14.97
2018-04-04T07:43:19.027Z,24.27
2018-04-04T07:45:45.431Z,16.53
2018-04-04T07:48:11.836Z,13.93
2018-04-04T07:50:38.316Z,17.30
2018-04-04T07:53:05.473Z,11.73
2018-04-04T07:55:32.576Z,14.23
2018-04-04T07:57:58.955Z,23.43
2018-04-04T08:00:26.074Z,14.53
2018-04-04T08:02:52.472Z,20.80
2018-04-04T08:05:18.847Z,14.23
2018-04-04T08:07:45.229Z,14.17
2018-04-04T08:10:11.632Z,18.63
2018-04-04T08:12:38.822Z,13.20
2018-04-04T08:15:05.298Z,14.03
2018-04-04T08:17:32.532Z,11.17
2018-04-04T08:19:58.916Z,10.90
2018-04-04T08:22:25.453Z,17.90
2018-04-04T08:24:51.846Z,17.73
2018-04-04T08:27:18.317Z,11.83
2018-04-04T08:29:44.777Z,12.67
2018-04-04T08:32:11.223Z,13.87
2018-04-04T08:34:37.663Z,10.77
2018-04-04T08:37:04.102Z,15.27
2018-04-04T08:39:30.490Z,12.50
2018-04-04T08:41:56.894Z,12.43
2018-04-04T08:44:24.032Z,18.03
2018-04-04T08:46:50.488Z,15.83
2018-04-04T08:49:16.914Z,16.73
2018-04-04T08:51:44.084Z,11.23
2018-04-04T08:54:10.483Z,16.13
2018-04-04T08:56:36.907Z,13.57
2018-04-04T08:59:04.186Z,13.73
2018-04-04T09:01:31.378Z,16.07
2018-04-04T09:03:57.794Z,22.80
2018-04-04T09:06:24.209Z,16.93
2018-04-04T09:08:50.637Z,23.90
2018-04-04T09:11:17.779Z,20.23
2018-04-04T09:13:44.949Z,20.73
2018-04-04T09:16:11.582Z,18.40
2018-04-04T09:18:38.043Z,14.30
2018-04-04T09:21:04.868Z,9.10
2018-04-04T09:23:31.280Z,13.83
2018-04-04T09:25:57.808Z,21.37
2018-04-04T09:28:24.969Z,30.83
2018-04-04T09:30:52.131Z,40.23
2018-04-04T09:33:18.535Z,15.60
2018-04-04T09:35:45.720Z,14.87
2018-04-04T09:38:12.232Z,20.50
2018-04-04T09:40:39.402Z,18.77
2018-04-04T09:43:05.809Z,17.03
2018-04-04T09:45:32.981Z,11.23
2018-04-04T09:47:59.369Z,13.93
2018-04-04T09:50:25.776Z,15.90
2018-04-04T09:52:52.213Z,12.40
2018-04-04T09:55:18.619Z,14.10
2018-04-04T09:57:45.062Z,14.80
2018-04-04T10:00:11.580Z,16.23
2018-04-04T10:02:37.960Z,10.67
2018-04-04T10:05:04.376Z,14.27
2018-04-04T10:07:30.789Z,10.83
2018-04-04T10:09:57.211Z,11.97
2018-04-04T10:12:23.650Z,15.20
2018-04-04T10:14:50.072Z,16.93
2018-04-04T10:17:16.489Z,20.53
2018-04-04T10:19:43.673Z,12.13
2018-04-04T10:22:10.824Z,13.80
2018-04-04T10:24:37.278Z,21.27
2018-04-04T10:27:03.707Z,18.33
2018-04-04T10:29:30.174Z,17.47
2018-04-04T10:31:57.318Z,11.60
2018-04-04T10:34:23.717Z,11.00
2018-04-04T10:36:50.116Z,14.10
2018-04-04T10:39:17.263Z,15.40
2018-04-04T10:41:44.423Z,26.60
2018-04-04T10:44:10.807Z,13.70
2018-04-04T10:46:37.233Z,17.20
2018-04-04T10:49:03.643Z,15.10
2018-04-04T10:51:30.047Z,18.93
2018-04-04T10:53:57.209Z,18.87
2018-04-04T10:56:23.633Z,17.10
2018-04-04T10:58:50.846Z,11.93
2018-04-04T11:01:17.261Z,18.43
2018-04-04T11:03:43.677Z,12.53
2018-04-04T11:06:10.079Z,28.30
2018-04-04T11:08:36.496Z,16.20
2018-04-04T11:11:03.699Z,17.20
2018-04-04T11:13:30.116Z,18.20
2018-04-04T11:15:56.546Z,15.10
2018-04-04T11:18:22.948Z,17.77
2018-04-04T11:20:50.092Z,19.00
2018-04-04T11:23:17.430Z,16.80
2018-04-04T11:25:43.843Z,20.37
2018-04-04T11:28:10.306Z,24.37
2018-04-04T11:30:37.449Z,18.43
2018-04-04T11:33:03.859Z,14.87
2018-04-04T11:35:30.401Z,15.70
2018-04-04T11:37:56.810Z,20.53
2018-04-04T11:40:23.205Z,17.27
2018-04-04T11:42:50.340Z,23.17
2018-04-04T11:45:16.746Z,19.03
2018-04-04T11:47:43.147Z,16.53
2018-04-04T11:50:09.543Z,18.97
2018-04-04T11:52:35.940Z,19.57
2018-04-04T11:55:02.353Z,17.57
2018-04-04T11:57:28.783Z,14.10
2018-04-04T11:59:55.196Z,17.10
2018-04-04T12:02:22.406Z,16.83
2018-04-04T12:04:48.828Z,14.70
2018-04-04T12:07:15.237Z,13.13
2018-04-04T12:09:41.668Z,18.77
2018-04-04T12:12:08.056Z,12.07
2018-04-04T12:14:34.460Z,11.83
2018-04-04T12:17:00.855Z,17.57
2018-04-04T12:19:27.263Z,29.73
2018-04-04T12:21:54.430Z,16.47
2018-04-04T12:24:20.892Z,14.17
2018-04-04T12:26:47.441Z,10.67
2018-04-04T12:29:14.076Z,13.73
2018-04-04T12:31:40.499Z,11.57
2018-04-04T12:34:06.939Z,12.00
2018-04-04T12:36:33.423Z,12.20
2018-04-04T12:39:00.574Z,16.30
2018-04-04T12:41:27.976Z,8.90
2018-04-04T12:43:54.393Z,12.10
2018-04-04T12:46:20.820Z,12.97
2018-04-04T12:48:47.237Z,13.03
2018-04-04T12:51:14.389Z,14.30
2018-04-04T12:53:41.524Z,27.23
2018-04-04T12:56:07.963Z,17.83
2018-04-04T12:58:35.143Z,17.27
2018-04-04T13:01:01.563Z,15.00
2018-04-04T13:03:27.979Z,15.33
2018-04-04T13:05:55.120Z,14.83
2018-04-04T13:08:22.315Z,28.33
2018-04-04T13:10:48.769Z,14.03
2018-04-04T13:13:15.206Z,20.17
2018-04-04T13:15:41.618Z,16.63
2018-04-04T13:18:08.036Z,13.10
2018-04-04T13:20:34.437Z,13.13
2018-04-04T13:23:01.585Z,24.17
2018-04-04T13:25:28.738Z,12.97
2018-04-04T13:27:55.946Z,12.13
2018-04-04T13:30:22.365Z,21.80
2018-04-04T13:32:48.777Z,19.90
2018-04-04T13:35:15.925Z,22.37
2018-04-04T13:37:43.241Z,13.43
2018-04-04T13:40:09.653Z,16.17
2018-04-04T13:42:36.036Z,16.40
2018-04-04T13:45:03.241Z,12.80
2018-04-04T13:47:29.638Z,14.47
2018-04-04T13:49:56.045Z,19.17
2018-04-04T13:52:23.189Z,11.83
2018-04-04T13:54:50.356Z,18.33
2018-04-04T13:57:17.498Z,12.40
2018-04-04T13:59:44.695Z,18.70
2018-04-04T14:02:11.108Z,20.50
2018-04-04T14:04:38.264Z,15.20
2018-04-04T14:07:04.694Z,15.23
2018-04-04T14:09:31.108Z,10.73
2018-04-04T14:11:58.252Z,14.23
2018-04-04T14:14:25.411Z,14.50
2018-04-04T14:16:52.549Z,17.60
2018-04-04T14:19:19.688Z,12.10
2018-04-04T14:21:46.834Z,19.23
2018-04-04T14:24:13.272Z,26.60
2018-04-04T14:26:39.654Z,24.60
2018-04-04T14:29:06.040Z,13.50
2018-04-04T14:31:33.228Z,21.47
2018-04-04T14:33:59.912Z,24.00
2018-04-04T14:36:26.313Z,24.10
2018-04-04T14:38:52.837Z,21.10
2018-04-04T14:41:19.239Z,17.47
2018-04-04T14:43:46.365Z,21.93
2018-04-04T14:46:12.763Z,15.60
2018-04-04T14:48:39.218Z,16.87
2018-04-04T14:51:06.452Z,17.00
2018-04-04T14:53:32.877Z,18.07
2018-04-04T14:55:59.298Z,15.10
2018-04-04T14:58:25.696Z,16.60
2018-04-04T15:00:52.094Z,18.77
2018-04-04T15:03:18.499Z,14.63
2018-04-04T15:05:44.898Z,20.27
2018-04-04T15:08:12.036Z,46.90
2018-04-04T15:10:38.443Z,13.73
2018-04-04T15:13:04.848Z,18.03
2018-04-04T15:15:31.246Z,18.67
2018-04-04T15:17:57.637Z,20.07
2018-04-04T15:20:24.046Z,15.43
2018-04-04T15:22:50.456Z,13.13
2018-04-04T15:25:16.852Z,26.40
2018-04-04T15:27:44.797Z,12.73
2018-04-04T15:30:11.209Z,20.83
2018-04-04T15:32:37.598Z,21.97
2018-04-04T15:35:04.018Z,22.07
2018-04-04T15:37:32.002Z,20.13
2018-04-04T15:39:59.223Z,25.33
2018-04-04T15:42:25.642Z,18.10
2018-04-04T15:44:53.626Z,15.27
2018-04-04T15:47:20.382Z,25.87
2018-04-04T15:49:46.876Z,24.70
2018-04-04T15:52:13.314Z,25.40
2018-04-04T15:54:40.529Z,22.30
2018-04-04T15:57:07.673Z,24.63
2018-04-04T15:59:34.861Z,13.20
2018-04-04T16:02:01.295Z,23.40
2018-04-04T16:04:27.708Z,20.73
2018-04-04T16:06:54.837Z,18.90
2018-04-04T16:09:21.996Z,18.60
2018-04-04T16:11:49.168Z,20.70
2018-04-04T16:14:15.567Z,20.33
2018-04-04T16:16:41.956Z,31.70
2018-04-04T16:19:08.330Z,17.40
2018-04-04T16:21:36.996Z,20.53
2018-04-04T16:24:03.419Z,12.67
2018-04-04T16:26:29.810Z,21.33
2018-04-04T16:28:56.215Z,32.87
2018-04-04T16:31:23.373Z,29.87
2018-04-04T16:33:50.526Z,25.10
2018-04-04T16:36:17.681Z,21.63
2018-04-04T16:38:44.855Z,22.80
2018-04-04T16:41:11.444Z,26.27
2018-04-04T16:43:37.865Z,24.53
2018-04-04T16:46:04.289Z,24.93
2018-04-04T16:48:30.827Z,21.77
2018-04-04T16:50:57.437Z,28.23
2018-04-04T16:53:24.418Z,19.23
2018-04-04T16:55:50.834Z,15.73
2018-04-04T16:58:17.249Z,23.50
2018-04-04T17:00:43.644Z,14.90
2018-04-04T17:03:11.538Z,14.20
2018-04-04T17:05:37.938Z,20.80
2018-04-04T17:08:05.180Z,21.97
2018-04-04T17:10:31.612Z,19.23
2018-04-04T17:12:57.974Z,25.97
2018-04-04T17:15:24.406Z,26.07
2018-04-04T17:17:51.548Z,20.47
2018-04-04T17:20:18.725Z,18.60
2018-04-04T17:22:45.132Z,21.50
2018-04-04T17:25:11.546Z,28.00
2018-04-04T17:27:38.709Z,29.60
2018-04-04T17:30:05.136Z,29.97
2018-04-04T17:32:32.305Z,22.03
2018-04-04T17:34:59.485Z,39.23
2018-04-04T17:37:26.072Z,19.27
2018-04-04T17:39:53.284Z,18.80
2018-04-04T17:42:19.732Z,24.83
2018-04-04T17:44:46.184Z,23.47
2018-04-04T17:47:12.591Z,18.87
2018-04-04T17:49:39.085Z,22.07
2018-04-04T17:52:05.556Z,22.13
2018-04-04T17:54:32.770Z,22.50
2018-04-04T17:56:59.276Z,37.03
2018-04-04T17:59:25.801Z,38.07
2018-04-04T18:01:52.341Z,37.07
2018-04-04T18:04:19.608Z,29.63
2018-04-04T18:06:46.637Z,34.10
2018-04-04T18:09:13.241Z,21.73
2018-04-04T18:11:39.730Z,19.23
2018-04-04T18:14:06.280Z,16.17
2018-04-04T18:16:34.776Z,18.40
2018-04-04T18:19:01.334Z,19.80
2018-04-04T18:21:27.854Z,28.33
2018-04-04T18:23:54.447Z,30.07
2018-04-04T18:26:21.865Z,23.77
2018-04-04T18:28:49.604Z,21.90
2018-04-04T18:31:17.197Z,28.53
2018-04-04T18:33:45.434Z,31.20
2018-04-04T18:36:13.946Z,145.07
2018-04-04T18:38:41.233Z,307.83
2018-04-04T18:41:08.097Z,404.00
2018-04-04T18:43:35.646Z,602.97
2018-04-04T18:46:02.318Z,602.23
2018-04-04T18:48:30.721Z,340.77
2018-04-04T18:50:57.443Z,198.33
2018-04-04T18:53:27.813Z,152.60
2018-04-04T18:55:54.354Z,394.50
2018-04-04T18:58:20.938Z,142.00
2018-04-04T19:00:47.648Z,238.13
2018-04-04T19:03:14.771Z,185.57
2018-04-04T19:05:42.767Z,151.30
2018-04-04T19:08:11.697Z,129.57
2018-04-04T19:10:39.099Z,116.67
2018-04-04T19:13:05.855Z,77.33
2018-04-04T19:15:33.115Z,74.07
2018-04-04T19:17:59.682Z,50.50
2018-04-04T19:20:26.711Z,33.50
2018-04-04T19:22:54.224Z,45.50
2018-04-04T19:25:20.810Z,31.57
2018-04-04T19:27:48.212Z,26.43
2018-04-04T19:30:14.733Z,41.13
2018-04-04T19:32:42.653Z,49.43
2018-04-04T19:35:09.180Z,35.67
2018-04-04T19:37:37.064Z,36.67
2018-04-04T19:40:03.623Z,25.30
2018-04-04T19:42:30.257Z,21.53
2018-04-04T19:44:56.663Z,22.27
2018-04-04T19:47:24.035Z,26.33
2018-04-04T19:49:51.309Z,24.70
2018-04-04T19:52:17.767Z,31.27
2018-04-04T19:54:45.232Z,35.57
2018-04-04T19:57:13.486Z,35.00
2018-04-04T19:59:40.680Z,24.80
2018-04-04T20:02:08.104Z,27.40
2018-04-04T20:04:36.142Z,30.23
2018-04-04T20:07:03.017Z,40.83
2018-04-04T20:09:29.559Z,27.30
2018-04-04T20:11:56.197Z,26.77
2018-04-04T20:14:23.558Z,24.90
2018-04-04T20:16:50.810Z,26.90
2018-04-04T20:19:17.321Z,23.27
2018-04-04T20:21:43.862Z,22.30
2018-04-04T20:24:11.209Z,26.87
2018-04-04T20:26:38.146Z,29.43
2018-04-04T20:29:04.564Z,18.63
2018-04-04T20:31:30.998Z,20.57
2018-04-04T20:33:57.443Z,44.40
2018-04-04T20:36:24.623Z,25.60
2018-04-04T20:38:51.842Z,27.33
2018-04-04T20:41:18.231Z,30.30
2018-04-04T20:43:44.644Z,24.70
2018-04-04T20:46:11.032Z,22.60
2018-04-04T20:48:37.448Z,18.83
2018-04-04T20:51:04.640Z,22.60
2018-04-04T20:53:31.062Z,26.10
2018-04-04T20:55:57.481Z,36.07
2018-04-04T20:58:23.893Z,24.80
2018-04-04T21:00:51.031Z,27.40
2018-04-04T21:03:18.194Z,19.53
2018-04-04T21:05:45.402Z,31.73
2018-04-04T21:08:12.716Z,27.10
2018-04-04T21:10:39.162Z,24.37
2018-04-04T21:13:05.646Z,27.63
2018-04-04T21:15:32.789Z,20.97
2018-04-04T21:17:59.199Z,25.03
2018-04-04T21:20:25.594Z,32.57
2018-04-04T21:22:52.733Z,33.87
2018-04-04T21:25:19.866Z,30.43
2018-04-04T21:27:47.019Z,19.47
2018-04-04T21:30:13.461Z,30.13
2018-04-04T21:32:40.605Z,36.43
2018-04-04T21:35:07.741Z,22.93
2018-04-04T21:37:34.185Z,42.03
2018-04-04T21:40:00.666Z,36.40
2018-04-04T21:42:27.061Z,33.70
2018-04-04T21:44:54.183Z,31.27
2018-04-04T21:47:20.572Z,24.57
2018-04-04T21:49:46.998Z,30.43
2018-04-04T21:52:13.372Z,24.77
2018-04-04T21:54:40.504Z,27.37
2018-04-04T21:57:06.903Z,20.37
2018-04-04T21:59:33.285Z,23.47
2018-04-04T22:01:59.669Z,36.37
2018-04-04T22:04:26.056Z,28.97
2018-04-04T22:06:52.544Z,36.97
2018-04-04T22:09:18.993Z,33.83
2018-04-04T22:11:45.373Z,23.67
2018-04-04T22:14:12.516Z,27.93
2018-04-04T22:16:38.906Z,30.03
2018-04-04T22:19:05.342Z,24.80
2018-04-04T22:21:31.760Z,17.37
2018-04-04T22:23:58.147Z,31.07
2018-04-04T22:26:24.513Z,19.53
2018-04-04T22:28:50.893Z,21.47
2018-04-04T22:31:17.348Z,17.20
2018-04-04T22:33:44.496Z,26.23
2018-04-04T22:36:10.888Z,25.57
2018-04-04T22:38:37.275Z,21.40
2018-04-04T22:41:04.411Z,10.47
2018-04-04T22:43:30.806Z,10.10
2018-04-04T22:45:57.224Z,14.03
2018-04-04T22:48:23.643Z,13.33
2018-04-04T22:50:50.031Z,17.73
2018-04-04T22:53:17.904Z,12.80
2018-04-04T22:55:44.278Z,19.90
2018-04-04T22:58:10.665Z,9.57
2018-04-04T23:00:38.527Z,11.27
2018-04-04T23:03:04.927Z,11.30
2018-04-04T23:05:31.321Z,9.83
2018-04-04T23:07:58.449Z,7.10
2018-04-04T23:10:26.307Z,12.93
2018-04-04T23:12:52.720Z,8.77
2018-04-04T23:15:20.108Z,4.10
2018-04-04T23:17:47.236Z,10.67
2018-04-04T23:20:13.681Z,3.90
2018-04-04T23:22:41.692Z,4.77
2018-04-04T23:25:08.089Z,6.40
2018-04-04T23:27:35.248Z,6.47
2018-04-04T23:30:01.637Z,9.27
2018-04-04T23:32:28.037Z,5.43
2018-04-04T23:34:55.219Z,6.23
2018-04-04T23:37:21.620Z,6.20
2018-04-04T23:39:48.038Z,5.33
2018-04-04T23:42:15.172Z,5.03
2018-04-04T23:44:41.559Z,5.80
2018-04-04T23:47:07.947Z,3.13
2018-04-04T23:49:35.069Z,8.57
2018-04-04T23:52:01.447Z,6.97
2018-04-04T23:54:27.841Z,4.97
2018-04-04T23:56:54.239Z,14.43
2018-04-04T23:59:20.701Z,5.50
